sensor_id;sensor_type;location;lat;lon;timestamp;P1;durP1;ratioP1;P2;durP2;ratioP2
73321;SDS011;61549;37.044;22.128;2022-09-30T00:01:42;3.75;;;1.77;;
73321;SDS011;61549;37.044;22.128;2022-09-30T00:04:13;2.03;;;1.20;;
73321;SDS011;61549;37.044;22.128;2022-09-30T00:06:44;4.07;;;1.40;;
73321;SDS011;61549;37.044;22.128;2022-09-30T00:09:10;4.07;;;1.70;;
73321;SDS011;61549;37.044;22.128;2022-09-30T00:11:37;3.95;;;1.80;;
73321;SDS011;61549;37.044;22.128;2022-09-30T00:14:04;2.65;;;1.40;;
73321;SDS011;61549;37.044;22.128;2022-09-30T00:16:36;3.38;;;1.42;;
73321;SDS011;61549;37.044;22.128;2022-09-30T00:19:02;3.65;;;1.58;;
73321;SDS011;61549;37.044;22.128;2022-09-30T00:21:30;2.50;;;1.38;;
73321;SDS011;61549;37.044;22.128;2022-09-30T00:24:00;4.50;;;1.50;;
73321;SDS011;61549;37.044;22.128;2022-09-30T00:26:28;4.63;;;1.40;;
73321;SDS011;61549;37.044;22.128;2022-09-30T00:28:55;6.90;;;1.65;;
73321;SDS011;61549;37.044;22.128;2022-09-30T00:31:23;2.83;;;1.20;;
73321;SDS011;61549;37.044;22.128;2022-09-30T00:33:50;4.20;;;1.52;;
73321;SDS011;61549;37.044;22.128;2022-09-30T00:39:14;3.95;;;1.50;;
73321;SDS011;61549;37.044;22.128;2022-09-30T00:41:52;2.42;;;1.80;;
73321;SDS011;61549;37.044;22.128;2022-09-30T00:49:49;2.90;;;1.70;;
73321;SDS011;61549;37.044;22.128;2022-09-30T00:52:15;2.50;;;1.33;;
73321;SDS011;61549;37.044;22.128;2022-09-30T00:54:42;3.80;;;1.40;;
73321;SDS011;61549;37.044;22.128;2022-09-30T00:57:08;8.85;;;1.77;;
73321;SDS011;61549;37.044;22.128;2022-09-30T00:59:39;2.97;;;1.63;;
73321;SDS011;61549;37.044;22.128;2022-09-30T01:02:09;4.10;;;1.50;;
73321;SDS011;61549;37.044;22.128;2022-09-30T01:04:37;2.20;;;1.42;;
73321;SDS011;61549;37.044;22.128;2022-09-30T01:07:04;4.78;;;1.70;;
73321;SDS011;61549;37.044;22.128;2022-09-30T01:09:32;3.30;;;1.60;;
73321;SDS011;61549;37.044;22.128;2022-09-30T01:12:02;3.17;;;1.50;;
73321;SDS011;61549;37.044;22.128;2022-09-30T01:14:30;3.30;;;1.52;;
73321;SDS011;61549;37.044;22.128;2022-09-30T01:17:02;2.42;;;1.63;;
73321;SDS011;61549;37.044;22.128;2022-09-30T01:30:21;3.28;;;1.50;;
73321;SDS011;61549;37.044;22.128;2022-09-30T01:35:38;6.18;;;1.90;;
73321;SDS011;61549;37.044;22.128;2022-09-30T01:40:55;4.68;;;1.60;;
73321;SDS011;61549;37.044;22.128;2022-09-30T01:48:59;4.30;;;1.50;;
73321;SDS011;61549;37.044;22.128;2022-09-30T01:51:39;2.15;;;1.40;;
73321;SDS011;61549;37.044;22.128;2022-09-30T01:56:45;3.70;;;1.83;;
73321;SDS011;61549;37.044;22.128;2022-09-30T01:59:26;5.85;;;2.00;;
73321;SDS011;61549;37.044;22.128;2022-09-30T02:02:08;5.40;;;1.70;;
73321;SDS011;61549;37.044;22.128;2022-09-30T02:04:49;3.75;;;1.65;;
73321;SDS011;61549;37.044;22.128;2022-09-30T02:07:42;4.38;;;1.67;;
73321;SDS011;61549;37.044;22.128;2022-09-30T02:10:25;4.28;;;1.70;;
73321;SDS011;61549;37.044;22.128;2022-09-30T02:13:15;4.53;;;1.80;;
73321;SDS011;61549;37.044;22.128;2022-09-30T02:16:03;3.78;;;1.80;;
73321;SDS011;61549;37.044;22.128;2022-09-30T02:19:22;4.15;;;1.63;;
73321;SDS011;61549;37.044;22.128;2022-09-30T02:21:29;1.77;;;1.33;;
73321;SDS011;61549;37.044;22.128;2022-09-30T02:24:01;3.13;;;1.70;;
73321;SDS011;61549;37.044;22.128;2022-09-30T02:26:33;2.38;;;1.45;;
73321;SDS011;61549;37.044;22.128;2022-09-30T02:29:05;4.00;;;1.80;;
73321;SDS011;61549;37.044;22.128;2022-09-30T02:31:36;2.72;;;1.50;;
73321;SDS011;61549;37.044;22.128;2022-09-30T02:34:13;2.33;;;1.40;;
73321;SDS011;61549;37.044;22.128;2022-09-30T02:42:29;4.55;;;1.48;;
73321;SDS011;61549;37.044;22.128;2022-09-30T02:44:58;2.70;;;1.70;;
73321;SDS011;61549;37.044;22.128;2022-09-30T02:49:59;3.05;;;1.60;;
73321;SDS011;61549;37.044;22.128;2022-09-30T02:55:40;8.70;;;1.77;;
73321;SDS011;61549;37.044;22.128;2022-09-30T02:58:17;7.72;;;1.63;;
73321;SDS011;61549;37.044;22.128;2022-09-30T03:00:46;4.25;;;1.48;;
73321;SDS011;61549;37.044;22.128;2022-09-30T03:03:20;7.03;;;1.85;;
73321;SDS011;61549;37.044;22.128;2022-09-30T03:05:50;4.95;;;1.70;;
73321;SDS011;61549;37.044;22.128;2022-09-30T03:08:16;5.03;;;1.40;;
73321;SDS011;61549;37.044;22.128;2022-09-30T03:10:42;4.85;;;1.38;;
73321;SDS011;61549;37.044;22.128;2022-09-30T03:19:06;2.15;;;1.35;;
73321;SDS011;61549;37.044;22.128;2022-09-30T03:27:38;3.33;;;1.60;;
73321;SDS011;61549;37.044;22.128;2022-09-30T03:30:14;4.90;;;1.85;;
73321;SDS011;61549;37.044;22.128;2022-09-30T03:35:18;5.20;;;1.77;;
73321;SDS011;61549;37.044;22.128;2022-09-30T03:38:00;3.85;;;1.42;;
73321;SDS011;61549;37.044;22.128;2022-09-30T03:40:46;4.90;;;1.50;;
73321;SDS011;61549;37.044;22.128;2022-09-30T03:43:19;2.95;;;1.30;;
73321;SDS011;61549;37.044;22.128;2022-09-30T03:46:15;3.92;;;1.55;;
73321;SDS011;61549;37.044;22.128;2022-09-30T03:48:42;2.50;;;1.33;;
73321;SDS011;61549;37.044;22.128;2022-09-30T03:51:10;5.57;;;1.83;;
73321;SDS011;61549;37.044;22.128;2022-09-30T03:53:41;3.95;;;1.30;;
73321;SDS011;61549;37.044;22.128;2022-09-30T03:56:10;3.42;;;1.58;;
73321;SDS011;61549;37.044;22.128;2022-09-30T03:58:39;2.25;;;1.25;;
73321;SDS011;61549;37.044;22.128;2022-09-30T04:01:09;4.72;;;1.60;;
73321;SDS011;61549;37.044;22.128;2022-09-30T04:03:46;2.03;;;1.33;;
73321;SDS011;61549;37.044;22.128;2022-09-30T04:06:13;7.80;;;1.90;;
73321;SDS011;61549;37.044;22.128;2022-09-30T04:08:39;3.13;;;1.50;;
73321;SDS011;61549;37.044;22.128;2022-09-30T04:11:05;3.13;;;1.70;;
73321;SDS011;61549;37.044;22.128;2022-09-30T04:13:31;3.42;;;1.58;;
73321;SDS011;61549;37.044;22.128;2022-09-30T04:15:56;3.10;;;1.85;;
73321;SDS011;61549;37.044;22.128;2022-09-30T04:18:22;4.47;;;1.80;;
73321;SDS011;61549;37.044;22.128;2022-09-30T04:20:48;3.05;;;1.60;;
73321;SDS011;61549;37.044;22.128;2022-09-30T04:23:14;6.15;;;1.80;;
73321;SDS011;61549;37.044;22.128;2022-09-30T04:25:41;5.20;;;1.83;;
73321;SDS011;61549;37.044;22.128;2022-09-30T04:28:06;4.63;;;1.70;;
73321;SDS011;61549;37.044;22.128;2022-09-30T04:30:32;4.45;;;2.00;;
73321;SDS011;61549;37.044;22.128;2022-09-30T04:32:58;8.30;;;2.00;;
73321;SDS011;61549;37.044;22.128;2022-09-30T04:35:24;5.78;;;1.83;;
73321;SDS011;61549;37.044;22.128;2022-09-30T04:37:52;5.78;;;2.03;;
73321;SDS011;61549;37.044;22.128;2022-09-30T04:40:18;4.90;;;2.20;;
73321;SDS011;61549;37.044;22.128;2022-09-30T04:42:44;9.45;;;2.15;;
73321;SDS011;61549;37.044;22.128;2022-09-30T04:45:12;3.85;;;2.05;;
73321;SDS011;61549;37.044;22.128;2022-09-30T04:47:41;4.97;;;2.20;;
73321;SDS011;61549;37.044;22.128;2022-09-30T04:50:09;7.18;;;2.00;;
73321;SDS011;61549;37.044;22.128;2022-09-30T04:52:35;3.08;;;2.05;;
73321;SDS011;61549;37.044;22.128;2022-09-30T04:55:02;3.85;;;1.92;;
73321;SDS011;61549;37.044;22.128;2022-09-30T04:57:29;5.32;;;2.00;;
73321;SDS011;61549;37.044;22.128;2022-09-30T04:59:55;4.53;;;2.05;;
73321;SDS011;61549;37.044;22.128;2022-09-30T05:02:21;6.90;;;2.30;;
73321;SDS011;61549;37.044;22.128;2022-09-30T05:04:47;5.50;;;2.10;;
73321;SDS011;61549;37.044;22.128;2022-09-30T05:07:13;8.18;;;2.17;;
73321;SDS011;61549;37.044;22.128;2022-09-30T05:09:39;5.50;;;2.20;;
73321;SDS011;61549;37.044;22.128;2022-09-30T05:12:05;5.47;;;2.50;;
73321;SDS011;61549;37.044;22.128;2022-09-30T05:14:32;6.60;;;2.35;;
73321;SDS011;61549;37.044;22.128;2022-09-30T05:16:58;7.90;;;2.45;;
73321;SDS011;61549;37.044;22.128;2022-09-30T05:19:25;6.07;;;2.00;;
73321;SDS011;61549;37.044;22.128;2022-09-30T05:21:50;8.48;;;2.50;;
73321;SDS011;61549;37.044;22.128;2022-09-30T05:24:16;9.57;;;2.60;;
73321;SDS011;61549;37.044;22.128;2022-09-30T05:26:42;6.78;;;2.55;;
73321;SDS011;61549;37.044;22.128;2022-09-30T05:29:09;9.13;;;2.78;;
73321;SDS011;61549;37.044;22.128;2022-09-30T05:31:35;6.63;;;2.10;;
73321;SDS011;61549;37.044;22.128;2022-09-30T05:34:00;5.28;;;2.10;;
73321;SDS011;61549;37.044;22.128;2022-09-30T05:36:26;4.25;;;1.80;;
73321;SDS011;61549;37.044;22.128;2022-09-30T05:38:52;6.50;;;2.10;;
73321;SDS011;61549;37.044;22.128;2022-09-30T05:41:18;3.85;;;1.90;;
73321;SDS011;61549;37.044;22.128;2022-09-30T05:43:45;5.57;;;2.20;;
73321;SDS011;61549;37.044;22.128;2022-09-30T05:46:12;6.22;;;2.10;;
73321;SDS011;61549;37.044;22.128;2022-09-30T05:48:38;4.18;;;1.80;;
73321;SDS011;61549;37.044;22.128;2022-09-30T05:51:04;4.63;;;2.40;;
73321;SDS011;61549;37.044;22.128;2022-09-30T05:53:33;7.47;;;2.05;;
73321;SDS011;61549;37.044;22.128;2022-09-30T05:56:02;7.60;;;2.47;;
73321;SDS011;61549;37.044;22.128;2022-09-30T05:58:29;7.45;;;2.10;;
73321;SDS011;61549;37.044;22.128;2022-09-30T06:01:06;5.65;;;2.63;;
73321;SDS011;61549;37.044;22.128;2022-09-30T06:03:34;4.78;;;2.10;;
73321;SDS011;61549;37.044;22.128;2022-09-30T06:06:01;4.68;;;1.80;;
73321;SDS011;61549;37.044;22.128;2022-09-30T06:08:27;3.70;;;1.50;;
73321;SDS011;61549;37.044;22.128;2022-09-30T06:10:53;5.18;;;1.70;;
73321;SDS011;61549;37.044;22.128;2022-09-30T06:13:19;3.33;;;1.90;;
73321;SDS011;61549;37.044;22.128;2022-09-30T06:15:58;4.63;;;1.73;;
73321;SDS011;61549;37.044;22.128;2022-09-30T06:18:25;4.47;;;1.73;;
73321;SDS011;61549;37.044;22.128;2022-09-30T06:20:56;4.88;;;1.60;;
73321;SDS011;61549;37.044;22.128;2022-09-30T06:23:26;6.30;;;1.70;;
73321;SDS011;61549;37.044;22.128;2022-09-30T06:25:53;5.30;;;1.80;;
73321;SDS011;61549;37.044;22.128;2022-09-30T06:28:21;4.82;;;1.90;;
73321;SDS011;61549;37.044;22.128;2022-09-30T06:30:47;6.07;;;1.90;;
73321;SDS011;61549;37.044;22.128;2022-09-30T06:33:14;5.63;;;2.03;;
73321;SDS011;61549;37.044;22.128;2022-09-30T06:35:46;3.63;;;1.80;;
73321;SDS011;61549;37.044;22.128;2022-09-30T06:38:13;3.25;;;1.75;;
73321;SDS011;61549;37.044;22.128;2022-09-30T06:40:43;3.97;;;1.88;;
73321;SDS011;61549;37.044;22.128;2022-09-30T06:43:13;4.25;;;1.70;;
73321;SDS011;61549;37.044;22.128;2022-09-30T06:45:40;4.38;;;2.20;;
73321;SDS011;61549;37.044;22.128;2022-09-30T06:48:18;4.60;;;1.92;;
73321;SDS011;61549;37.044;22.128;2022-09-30T06:50:45;6.38;;;1.83;;
73321;SDS011;61549;37.044;22.128;2022-09-30T06:53:11;5.07;;;1.95;;
73321;SDS011;61549;37.044;22.128;2022-09-30T06:55:37;5.72;;;1.88;;
73321;SDS011;61549;37.044;22.128;2022-09-30T06:58:04;6.63;;;1.60;;
73321;SDS011;61549;37.044;22.128;2022-09-30T07:00:33;4.57;;;1.75;;
73321;SDS011;61549;37.044;22.128;2022-09-30T07:03:04;3.38;;;1.63;;
73321;SDS011;61549;37.044;22.128;2022-09-30T07:05:37;6.93;;;1.70;;
73321;SDS011;61549;37.044;22.128;2022-09-30T07:08:03;6.22;;;2.20;;
73321;SDS011;61549;37.044;22.128;2022-09-30T07:10:30;5.50;;;1.98;;
73321;SDS011;61549;37.044;22.128;2022-09-30T07:12:55;5.65;;;1.70;;
73321;SDS011;61549;37.044;22.128;2022-09-30T07:15:23;5.07;;;1.90;;
73321;SDS011;61549;37.044;22.128;2022-09-30T07:17:52;4.60;;;1.65;;
73321;SDS011;61549;37.044;22.128;2022-09-30T07:20:20;6.07;;;1.92;;
73321;SDS011;61549;37.044;22.128;2022-09-30T07:22:46;3.22;;;1.80;;
73321;SDS011;61549;37.044;22.128;2022-09-30T07:25:12;3.55;;;1.70;;
73321;SDS011;61549;37.044;22.128;2022-09-30T07:27:38;2.67;;;1.77;;
73321;SDS011;61549;37.044;22.128;2022-09-30T07:30:13;3.88;;;1.58;;
73321;SDS011;61549;37.044;22.128;2022-09-30T07:32:39;4.88;;;1.63;;
73321;SDS011;61549;37.044;22.128;2022-09-30T07:35:05;3.95;;;1.90;;
73321;SDS011;61549;37.044;22.128;2022-09-30T07:37:34;8.68;;;1.98;;
73321;SDS011;61549;37.044;22.128;2022-09-30T07:40:03;3.55;;;1.70;;
73321;SDS011;61549;37.044;22.128;2022-09-30T07:42:31;5.20;;;2.30;;
73321;SDS011;61549;37.044;22.128;2022-09-30T07:45:01;4.82;;;2.25;;
73321;SDS011;61549;37.044;22.128;2022-09-30T07:47:28;5.45;;;2.40;;
73321;SDS011;61549;37.044;22.128;2022-09-30T07:49:54;5.00;;;2.13;;
73321;SDS011;61549;37.044;22.128;2022-09-30T07:52:20;4.63;;;2.30;;
73321;SDS011;61549;37.044;22.128;2022-09-30T07:54:46;4.28;;;2.10;;
73321;SDS011;61549;37.044;22.128;2022-09-30T07:57:13;3.22;;;2.20;;
73321;SDS011;61549;37.044;22.128;2022-09-30T07:59:39;4.43;;;2.50;;
73321;SDS011;61549;37.044;22.128;2022-09-30T08:02:06;4.82;;;2.00;;
73321;SDS011;61549;37.044;22.128;2022-09-30T08:04:37;5.75;;;1.75;;
73321;SDS011;61549;37.044;22.128;2022-09-30T08:07:03;4.45;;;1.73;;
73321;SDS011;61549;37.044;22.128;2022-09-30T08:09:31;2.97;;;1.40;;
73321;SDS011;61549;37.044;22.128;2022-09-30T08:11:57;2.40;;;1.40;;
73321;SDS011;61549;37.044;22.128;2022-09-30T08:14:24;2.28;;;1.50;;
73321;SDS011;61549;37.044;22.128;2022-09-30T08:16:51;3.92;;;1.60;;
73321;SDS011;61549;37.044;22.128;2022-09-30T08:19:18;3.85;;;1.50;;
73321;SDS011;61549;37.044;22.128;2022-09-30T08:21:46;5.35;;;1.95;;
73321;SDS011;61549;37.044;22.128;2022-09-30T08:24:12;4.30;;;2.10;;
73321;SDS011;61549;37.044;22.128;2022-09-30T08:26:39;5.32;;;2.88;;
73321;SDS011;61549;37.044;22.128;2022-09-30T08:29:05;4.45;;;2.35;;
73321;SDS011;61549;37.044;22.128;2022-09-30T08:31:32;5.03;;;2.00;;
73321;SDS011;61549;37.044;22.128;2022-09-30T08:33:58;4.07;;;2.00;;
73321;SDS011;61549;37.044;22.128;2022-09-30T08:36:27;6.13;;;2.50;;
73321;SDS011;61549;37.044;22.128;2022-09-30T08:38:57;5.68;;;2.13;;
73321;SDS011;61549;37.044;22.128;2022-09-30T08:44:15;7.32;;;2.30;;
73321;SDS011;61549;37.044;22.128;2022-09-30T08:55:40;9.70;;;3.05;;
73321;SDS011;61549;37.044;22.128;2022-09-30T09:04:07;5.72;;;2.30;;
73321;SDS011;61549;37.044;22.128;2022-09-30T09:12:36;5.85;;;2.28;;
73321;SDS011;61549;37.044;22.128;2022-09-30T09:20:41;3.63;;;1.45;;
73321;SDS011;61549;37.044;22.128;2022-09-30T09:23:20;5.40;;;1.70;;
73321;SDS011;61549;37.044;22.128;2022-09-30T09:25:46;4.85;;;1.60;;
73321;SDS011;61549;37.044;22.128;2022-09-30T09:30:59;4.25;;;1.60;;
73321;SDS011;61549;37.044;22.128;2022-09-30T09:33:29;4.35;;;1.30;;
73321;SDS011;61549;37.044;22.128;2022-09-30T09:44:47;3.17;;;1.60;;
73321;SDS011;61549;37.044;22.128;2022-09-30T09:47:27;3.25;;;1.35;;
73321;SDS011;61549;37.044;22.128;2022-09-30T09:50:02;4.15;;;1.60;;
73321;SDS011;61549;37.044;22.128;2022-09-30T09:55:07;3.53;;;1.23;;
73321;SDS011;61549;37.044;22.128;2022-09-30T09:57:34;2.78;;;1.00;;
73321;SDS011;61549;37.044;22.128;2022-09-30T10:00:02;5.95;;;1.20;;
73321;SDS011;61549;37.044;22.128;2022-09-30T10:03:37;2.40;;;1.20;;
73321;SDS011;61549;37.044;22.128;2022-09-30T10:08:32;2.55;;;1.33;;
73321;SDS011;61549;37.044;22.128;2022-09-30T10:11:00;2.95;;;1.27;;
73321;SDS011;61549;37.044;22.128;2022-09-30T10:13:30;3.92;;;1.27;;
73321;SDS011;61549;37.044;22.128;2022-09-30T10:18:34;2.78;;;1.25;;
73321;SDS011;61549;37.044;22.128;2022-09-30T10:21:05;4.53;;;1.23;;
73321;SDS011;61549;37.044;22.128;2022-09-30T10:23:43;3.28;;;1.40;;
73321;SDS011;61549;37.044;22.128;2022-09-30T10:28:49;3.33;;;1.10;;
73321;SDS011;61549;37.044;22.128;2022-09-30T10:34:13;3.85;;;1.20;;
73321;SDS011;61549;37.044;22.128;2022-09-30T10:36:58;3.67;;;1.15;;
73321;SDS011;61549;37.044;22.128;2022-09-30T10:39:33;2.50;;;1.20;;
73321;SDS011;61549;37.044;22.128;2022-09-30T10:42:17;2.28;;;0.90;;
73321;SDS011;61549;37.044;22.128;2022-09-30T10:47:17;3.03;;;1.10;;
73321;SDS011;61549;37.044;22.128;2022-09-30T10:49:50;3.42;;;1.27;;
73321;SDS011;61549;37.044;22.128;2022-09-30T10:52:33;3.35;;;1.23;;
73321;SDS011;61549;37.044;22.128;2022-09-30T10:55:06;5.47;;;1.17;;
73321;SDS011;61549;37.044;22.128;2022-09-30T10:57:50;4.53;;;1.27;;
73321;SDS011;61549;37.044;22.128;2022-09-30T11:00:20;3.10;;;1.10;;
73321;SDS011;61549;37.044;22.128;2022-09-30T11:02:58;3.55;;;1.38;;
73321;SDS011;61549;37.044;22.128;2022-09-30T11:05:30;4.00;;;1.20;;
73321;SDS011;61549;37.044;22.128;2022-09-30T11:08:09;5.03;;;0.95;;
73321;SDS011;61549;37.044;22.128;2022-09-30T11:16:36;4.03;;;1.20;;
73321;SDS011;61549;37.044;22.128;2022-09-30T11:24:59;5.13;;;1.30;;
73321;SDS011;61549;37.044;22.128;2022-09-30T11:38:08;2.55;;;1.10;;
73321;SDS011;61549;37.044;22.128;2022-09-30T11:41:04;4.72;;;1.27;;
73321;SDS011;61549;37.044;22.128;2022-09-30T11:52:44;2.75;;;1.20;;
73321;SDS011;61549;37.044;22.128;2022-09-30T11:58:27;2.70;;;1.10;;
73321;SDS011;61549;37.044;22.128;2022-09-30T12:01:08;2.35;;;1.23;;
73321;SDS011;61549;37.044;22.128;2022-09-30T12:03:39;2.60;;;1.13;;
73321;SDS011;61549;37.044;22.128;2022-09-30T12:06:22;1.98;;;1.10;;
73321;SDS011;61549;37.044;22.128;2022-09-30T12:08:54;3.15;;;1.10;;
73321;SDS011;61549;37.044;22.128;2022-09-30T12:17:04;2.53;;;1.20;;
73321;SDS011;61549;37.044;22.128;2022-09-30T12:19:44;1.70;;;0.90;;
73321;SDS011;61549;37.044;22.128;2022-09-30T12:22:37;2.03;;;1.10;;
73321;SDS011;61549;37.044;22.128;2022-09-30T12:25:25;3.88;;;1.30;;
73321;SDS011;61549;37.044;22.128;2022-09-30T12:28:07;5.57;;;1.20;;
73321;SDS011;61549;37.044;22.128;2022-09-30T12:31:24;2.35;;;1.10;;
73321;SDS011;61549;37.044;22.128;2022-09-30T12:34:16;2.47;;;1.10;;
73321;SDS011;61549;37.044;22.128;2022-09-30T12:42:59;4.05;;;1.15;;
73321;SDS011;61549;37.044;22.128;2022-09-30T12:48:43;2.20;;;1.08;;
73321;SDS011;61549;37.044;22.128;2022-09-30T12:54:11;3.17;;;1.20;;
73321;SDS011;61549;37.044;22.128;2022-09-30T12:56:40;3.60;;;1.17;;
73321;SDS011;61549;37.044;22.128;2022-09-30T12:59:08;2.08;;;1.10;;
73321;SDS011;61549;37.044;22.128;2022-09-30T13:01:35;3.53;;;1.30;;
73321;SDS011;61549;37.044;22.128;2022-09-30T13:11:44;3.63;;;1.15;;
73321;SDS011;61549;37.044;22.128;2022-09-30T13:16:58;3.35;;;1.10;;
73321;SDS011;61549;37.044;22.128;2022-09-30T13:19:39;4.15;;;1.20;;
73321;SDS011;61549;37.044;22.128;2022-09-30T13:27:44;2.42;;;1.00;;
73321;SDS011;61549;37.044;22.128;2022-09-30T13:32:45;2.35;;;1.20;;
73321;SDS011;61549;37.044;22.128;2022-09-30T13:43:24;1.88;;;0.98;;
73321;SDS011;61549;37.044;22.128;2022-09-30T13:45:52;3.08;;;1.25;;
73321;SDS011;61549;37.044;22.128;2022-09-30T13:48:24;2.92;;;1.27;;
73321;SDS011;61549;37.044;22.128;2022-09-30T13:50:54;8.32;;;1.40;;
73321;SDS011;61549;37.044;22.128;2022-09-30T13:53:32;3.13;;;1.17;;
73321;SDS011;61549;37.044;22.128;2022-09-30T13:56:06;1.73;;;0.98;;
73321;SDS011;61549;37.044;22.128;2022-09-30T13:58:57;1.73;;;1.00;;
73321;SDS011;61549;37.044;22.128;2022-09-30T14:04:41;3.03;;;1.10;;
73321;SDS011;61549;37.044;22.128;2022-09-30T14:21:43;3.38;;;1.27;;
73321;SDS011;61549;37.044;22.128;2022-09-30T14:24:13;4.20;;;1.25;;
73321;SDS011;61549;37.044;22.128;2022-09-30T14:30:17;3.92;;;1.40;;
73321;SDS011;61549;37.044;22.128;2022-09-30T14:35:46;5.60;;;1.30;;
73321;SDS011;61549;37.044;22.128;2022-09-30T14:38:18;4.75;;;1.23;;
73321;SDS011;61549;37.044;22.128;2022-09-30T14:40:48;3.08;;;1.38;;
73321;SDS011;61549;37.044;22.128;2022-09-30T14:43:19;5.75;;;1.63;;
73321;SDS011;61549;37.044;22.128;2022-09-30T14:46:45;3.05;;;1.50;;
73321;SDS011;61549;37.044;22.128;2022-09-30T14:48:50;2.00;;;1.40;;
73321;SDS011;61549;37.044;22.128;2022-09-30T14:51:17;3.30;;;1.23;;
73321;SDS011;61549;37.044;22.128;2022-09-30T14:53:51;2.17;;;1.25;;
73321;SDS011;61549;37.044;22.128;2022-09-30T14:56:25;2.35;;;1.20;;
73321;SDS011;61549;37.044;22.128;2022-09-30T14:58:59;1.88;;;1.00;;
73321;SDS011;61549;37.044;22.128;2022-09-30T15:01:38;4.53;;;1.50;;
73321;SDS011;61549;37.044;22.128;2022-09-30T15:04:12;5.78;;;1.30;;
73321;SDS011;61549;37.044;22.128;2022-09-30T15:06:44;5.70;;;1.58;;
73321;SDS011;61549;37.044;22.128;2022-09-30T15:09:17;4.88;;;1.67;;
73321;SDS011;61549;37.044;22.128;2022-09-30T15:11:53;2.65;;;1.48;;
73321;SDS011;61549;37.044;22.128;2022-09-30T15:14:21;5.78;;;1.92;;
73321;SDS011;61549;37.044;22.128;2022-09-30T15:16:53;4.80;;;1.60;;
73321;SDS011;61549;37.044;22.128;2022-09-30T15:19:30;7.72;;;2.28;;
73321;SDS011;61549;37.044;22.128;2022-09-30T15:22:02;4.22;;;2.10;;
73321;SDS011;61549;37.044;22.128;2022-09-30T15:24:30;3.53;;;1.85;;
73321;SDS011;61549;37.044;22.128;2022-09-30T15:26:59;3.80;;;1.52;;
73321;SDS011;61549;37.044;22.128;2022-09-30T15:29:27;5.72;;;1.80;;
73321;SDS011;61549;37.044;22.128;2022-09-30T15:34:44;5.00;;;1.73;;
73321;SDS011;61549;37.044;22.128;2022-09-30T15:37:21;6.88;;;2.00;;
73321;SDS011;61549;37.044;22.128;2022-09-30T15:39:50;10.77;;;2.38;;
73321;SDS011;61549;37.044;22.128;2022-09-30T15:42:46;6.30;;;2.10;;
73321;SDS011;61549;37.044;22.128;2022-09-30T15:47:52;6.13;;;2.05;;
73321;SDS011;61549;37.044;22.128;2022-09-30T15:50:35;7.30;;;2.05;;
73321;SDS011;61549;37.044;22.128;2022-09-30T15:53:13;5.05;;;2.00;;
73321;SDS011;61549;37.044;22.128;2022-09-30T15:55:53;3.55;;;1.77;;
73321;SDS011;61549;37.044;22.128;2022-09-30T15:58:31;4.72;;;1.63;;
73321;SDS011;61549;37.044;22.128;2022-09-30T16:03:38;4.43;;;1.88;;
73321;SDS011;61549;37.044;22.128;2022-09-30T16:06:12;5.63;;;2.35;;
73321;SDS011;61549;37.044;22.128;2022-09-30T16:08:45;4.53;;;1.95;;
73321;SDS011;61549;37.044;22.128;2022-09-30T16:11:17;6.85;;;2.28;;
73321;SDS011;61549;37.044;22.128;2022-09-30T16:13:49;7.57;;;2.60;;
73321;SDS011;61549;37.044;22.128;2022-09-30T16:16:17;4.70;;;1.80;;
73321;SDS011;61549;37.044;22.128;2022-09-30T16:18:49;3.90;;;2.00;;
73321;SDS011;61549;37.044;22.128;2022-09-30T16:21:30;8.85;;;2.20;;
73321;SDS011;61549;37.044;22.128;2022-09-30T16:26:50;5.55;;;2.10;;
73321;SDS011;61549;37.044;22.128;2022-09-30T16:29:17;9.30;;;2.40;;
73321;SDS011;61549;37.044;22.128;2022-09-30T16:31:44;4.88;;;2.10;;
73321;SDS011;61549;37.044;22.128;2022-09-30T16:34:30;7.70;;;2.22;;
73321;SDS011;61549;37.044;22.128;2022-09-30T16:37:09;6.57;;;2.25;;
73321;SDS011;61549;37.044;22.128;2022-09-30T16:39:37;7.05;;;2.30;;
73321;SDS011;61549;37.044;22.128;2022-09-30T16:42:03;6.32;;;2.40;;
73321;SDS011;61549;37.044;22.128;2022-09-30T16:44:30;9.23;;;2.70;;
73321;SDS011;61549;37.044;22.128;2022-09-30T16:47:00;5.63;;;2.38;;
73321;SDS011;61549;37.044;22.128;2022-09-30T16:49:26;4.75;;;2.00;;
73321;SDS011;61549;37.044;22.128;2022-09-30T16:51:52;11.50;;;2.28;;
73321;SDS011;61549;37.044;22.128;2022-09-30T16:54:18;6.80;;;2.50;;
73321;SDS011;61549;37.044;22.128;2022-09-30T16:56:44;7.10;;;2.90;;
73321;SDS011;61549;37.044;22.128;2022-09-30T16:59:14;11.43;;;2.60;;
73321;SDS011;61549;37.044;22.128;2022-09-30T17:01:41;8.30;;;2.53;;
73321;SDS011;61549;37.044;22.128;2022-09-30T17:04:08;5.45;;;2.40;;
73321;SDS011;61549;37.044;22.128;2022-09-30T17:06:36;6.43;;;2.60;;
73321;SDS011;61549;37.044;22.128;2022-09-30T17:09:03;7.82;;;2.42;;
73321;SDS011;61549;37.044;22.128;2022-09-30T17:11:33;6.18;;;2.30;;
73321;SDS011;61549;37.044;22.128;2022-09-30T17:14:01;7.30;;;2.22;;
73321;SDS011;61549;37.044;22.128;2022-09-30T17:16:28;8.00;;;2.60;;
73321;SDS011;61549;37.044;22.128;2022-09-30T17:18:54;7.65;;;2.35;;
73321;SDS011;61549;37.044;22.128;2022-09-30T17:21:21;6.20;;;2.20;;
73321;SDS011;61549;37.044;22.128;2022-09-30T17:23:49;6.80;;;2.30;;
73321;SDS011;61549;37.044;22.128;2022-09-30T17:26:15;9.07;;;2.50;;
73321;SDS011;61549;37.044;22.128;2022-09-30T17:28:42;5.53;;;2.65;;
73321;SDS011;61549;37.044;22.128;2022-09-30T17:31:08;9.82;;;2.30;;
73321;SDS011;61549;37.044;22.128;2022-09-30T17:33:35;4.63;;;2.30;;
73321;SDS011;61549;37.044;22.128;2022-09-30T17:36:07;6.43;;;2.30;;
73321;SDS011;61549;37.044;22.128;2022-09-30T17:38:35;5.38;;;2.03;;
73321;SDS011;61549;37.044;22.128;2022-09-30T17:41:01;6.85;;;2.15;;
73321;SDS011;61549;37.044;22.128;2022-09-30T17:43:46;6.22;;;2.00;;
73321;SDS011;61549;37.044;22.128;2022-09-30T17:46:13;6.22;;;2.08;;
73321;SDS011;61549;37.044;22.128;2022-09-30T17:48:42;5.68;;;2.00;;
73321;SDS011;61549;37.044;22.128;2022-09-30T17:51:10;6.32;;;2.38;;
73321;SDS011;61549;37.044;22.128;2022-09-30T17:53:37;4.78;;;2.10;;
73321;SDS011;61549;37.044;22.128;2022-09-30T17:56:10;4.28;;;2.10;;
73321;SDS011;61549;37.044;22.128;2022-09-30T17:58:41;7.32;;;2.00;;
73321;SDS011;61549;37.044;22.128;2022-09-30T18:01:11;4.95;;;1.98;;
73321;SDS011;61549;37.044;22.128;2022-09-30T18:03:37;5.40;;;2.35;;
73321;SDS011;61549;37.044;22.128;2022-09-30T18:06:04;6.80;;;2.10;;
73321;SDS011;61549;37.044;22.128;2022-09-30T18:08:31;6.40;;;2.15;;
73321;SDS011;61549;37.044;22.128;2022-09-30T18:10:57;7.40;;;2.67;;
73321;SDS011;61549;37.044;22.128;2022-09-30T18:13:26;6.35;;;2.50;;
73321;SDS011;61549;37.044;22.128;2022-09-30T18:15:53;5.40;;;2.67;;
73321;SDS011;61549;37.044;22.128;2022-09-30T18:18:23;5.07;;;2.30;;
73321;SDS011;61549;37.044;22.128;2022-09-30T18:20:48;5.78;;;2.28;;
73321;SDS011;61549;37.044;22.128;2022-09-30T18:23:15;9.00;;;2.65;;
73321;SDS011;61549;37.044;22.128;2022-09-30T18:25:45;7.53;;;2.13;;
73321;SDS011;61549;37.044;22.128;2022-09-30T18:28:14;6.70;;;2.13;;
73321;SDS011;61549;37.044;22.128;2022-09-30T18:30:40;6.00;;;1.88;;
73321;SDS011;61549;37.044;22.128;2022-09-30T18:33:07;4.78;;;2.15;;
73321;SDS011;61549;37.044;22.128;2022-09-30T18:35:37;4.57;;;1.80;;
73321;SDS011;61549;37.044;22.128;2022-09-30T18:38:04;5.60;;;2.03;;
73321;SDS011;61549;37.044;22.128;2022-09-30T18:40:31;6.75;;;2.20;;
73321;SDS011;61549;37.044;22.128;2022-09-30T18:42:58;5.53;;;1.70;;
73321;SDS011;61549;37.044;22.128;2022-09-30T18:45:30;3.78;;;1.60;;